Time;durP1;ratioP1;P1;durP2;ratioP2;P2;SDS_P1;SDS_P2;PMS_P1;PMS_P2;Temp;Humidity;BMP_temperature;BMP_pressure;BME280_temperature;BME280_humidity;BME280_pressure;Samples;Min_cycle;Max_cycle;Signal;HPM_P1;HPM_P2
2022/12/19 00:01:26;;;;;;;11.17;6.33;;;22.20;99.90;;;;;;4963773;28;20050;-50
2022/12/19 00:03:58;;;;;;;11.13;6.07;;;22.20;99.90;;;;;;4976424;28;20110;-50
2022/12/19 00:06:25;;;;;;;10.23;6.03;;;22.10;99.90;;;;;;4974999;28;20428;-49
2022/12/19 00:08:52;;;;;;;9.37;6.03;;;22.10;99.90;;;;;;4976036;28;20027;-50
2022/12/19 00:11:20;;;;;;;11.75;6.30;;;22.10;99.90;;;;;;4976004;28;20256;-49
2022/12/19 00:13:46;;;;;;;10.30;6.88;;;22.10;99.90;;;;;;4976042;28;20173;-49
2022/12/19 00:16:18;;;;;;;10.98;6.50;;;22.10;99.90;;;;;;4975880;28;20035;-49
2022/12/19 00:18:45;;;;;;;11.13;6.72;;;22.10;99.90;;;;;;4975996;28;20354;-49
2022/12/19 00:21:14;;;;;;;11.90;6.43;;;22.00;99.90;;;;;;4975781;28;20434;-48
2022/12/19 00:23:40;;;;;;;11.32;6.13;;;22.00;99.90;;;;;;4975834;28;20432;-48
2022/12/19 00:26:09;;;;;;;10.07;5.93;;;22.00;99.90;;;;;;4974487;28;20403;-49
2022/12/19 00:28:35;;;;;;;9.20;6.30;;;22.00;99.90;;;;;;4974336;28;20034;-48
2022/12/19 00:31:02;;;;;;;10.55;5.90;;;22.00;99.90;;;;;;4975621;28;20322;-49
2022/12/19 00:33:28;;;;;;;9.15;6.45;;;22.00;99.90;;;;;;4975605;28;20037;-48
2022/12/19 00:36:03;;;;;;;8.88;5.70;;;21.90;99.90;;;;;;4974498;28;20070;-49
2022/12/19 00:38:29;;;;;;;13.20;6.63;;;22.00;99.90;;;;;;4975646;28;20023;-49
2022/12/19 00:41:04;;;;;;;9.10;6.18;;;21.90;99.90;;;;;;4975851;28;20030;-49
2022/12/19 00:43:30;;;;;;;9.38;5.85;;;21.90;99.90;;;;;;4975535;28;20497;-50
2022/12/19 00:45:56;;;;;;;10.25;6.30;;;21.90;99.90;;;;;;4975592;28;20058;-49
2022/12/19 00:48:22;;;;;;;11.80;6.28;;;21.90;99.90;;;;;;4975341;28;20019;-49
2022/12/19 00:50:47;;;;;;;11.43;6.20;;;21.90;99.90;;;;;;4975364;28;20377;-49
2022/12/19 00:53:13;;;;;;;12.40;6.32;;;21.90;99.90;;;;;;4975282;28;20507;-49
2022/12/19 00:55:39;;;;;;;9.10;6.07;;;21.90;99.90;;;;;;4975071;28;20477;-49
2022/12/19 00:58:05;;;;;;;10.65;6.40;;;21.80;99.90;;;;;;4975235;28;20127;-49
2022/12/19 01:00:30;;;;;;;9.55;6.50;;;21.90;99.90;;;;;;5021658;22;20103;-57
2022/12/19 01:02:57;;;;;;;10.70;6.00;;;21.80;99.90;;;;;;5034254;28;20029;-57
2022/12/19 01:05:23;;;;;;;11.00;6.38;;;21.90;99.90;;;;;;5033768;28;20013;-56
2022/12/19 01:07:48;;;;;;;11.90;6.40;;;21.80;99.90;;;;;;5033760;28;20039;-56
2022/12/19 01:10:14;;;;;;;9.90;5.50;;;21.80;99.90;;;;;;5033481;28;20034;-56
2022/12/19 01:12:46;;;;;;;9.52;5.70;;;21.80;99.90;;;;;;5033771;28;20034;-56
2022/12/19 01:15:19;;;;;;;10.48;6.05;;;21.80;99.90;;;;;;5033502;28;20480;-56
2022/12/19 01:17:46;;;;;;;7.63;5.30;;;21.80;99.90;;;;;;5033328;28;20018;-56
2022/12/19 01:20:18;;;;;;;9.40;5.70;;;21.80;99.90;;;;;;5033535;28;20025;-56
2022/12/19 01:22:44;;;;;;;9.05;5.90;;;21.80;99.90;;;;;;5033477;28;20064;-57
2022/12/19 01:25:11;;;;;;;11.02;5.38;;;21.80;99.90;;;;;;5033427;28;20025;-56
2022/12/19 01:27:37;;;;;;;9.70;5.93;;;21.80;99.90;;;;;;5033377;28;20100;-56
2022/12/19 01:30:04;;;;;;;12.23;6.70;;;21.70;99.90;;;;;;5033417;28;20101;-56
2022/12/19 01:32:30;;;;;;;8.73;5.57;;;21.80;99.90;;;;;;5033330;28;20372;-56
2022/12/19 01:34:56;;;;;;;9.18;5.20;;;21.70;99.90;;;;;;5033168;28;20033;-56
2022/12/19 01:37:21;;;;;;;9.98;5.20;;;21.70;99.90;;;;;;5033112;28;20036;-56
2022/12/19 01:39:47;;;;;;;8.05;5.28;;;21.70;99.90;;;;;;5033103;28;20032;-56
2022/12/19 01:42:19;;;;;;;9.82;6.40;;;21.70;99.90;;;;;;5033030;28;20033;-56
2022/12/19 01:45:07;;;;;;;8.30;5.80;;;21.70;99.90;;;;;;5015330;28;20104;-56
2022/12/19 01:47:51;;;;;;;;;;;21.70;99.90;;;;;;5033462;28;20048;-56
2022/12/19 01:50:24;;;;;;;11.27;5.75;;;21.70;99.90;;;;;;5032825;28;20302;-56
2022/12/19 01:52:51;;;;;;;10.07;5.05;;;21.70;99.90;;;;;;5032847;28;20420;-56
2022/12/19 01:55:18;;;;;;;9.03;4.97;;;21.70;99.90;;;;;;5032811;28;20545;-56
2022/12/19 01:57:44;;;;;;;11.38;6.05;;;21.60;99.90;;;;;;5032873;28;20444;-56
2022/12/19 02:00:11;;;;;;;9.27;6.00;;;21.60;99.90;;;;;;5033234;28;20124;-56
2022/12/19 02:03:00;;;;;;;9.20;5.32;;;21.60;99.90;;;;;;5032777;28;20025;-56
2022/12/19 02:05:26;;;;;;;9.48;5.50;;;21.60;99.90;;;;;;5032277;28;20045;-56
2022/12/19 02:07:52;;;;;;;8.68;4.72;;;21.60;99.90;;;;;;5032497;28;20023;-56
2022/12/19 02:10:18;;;;;;;7.57;4.97;;;21.60;99.90;;;;;;5032628;28;20033;-56
2022/12/19 02:12:45;;;;;;;8.52;4.57;;;21.60;99.90;;;;;;5032919;28;20083;-56
2022/12/19 02:15:12;;;;;;;9.98;5.53;;;21.60;99.90;;;;;;5032557;28;20029;-56
2022/12/19 02:18:03;;;;;;;8.60;5.10;;;21.50;99.90;;;;;;5032567;28;20071;-56
2022/12/19 02:20:29;;;;;;;12.38;5.63;;;21.50;99.90;;;;;;5032671;28;20487;-56
2022/12/19 02:23:49;;;;;;;7.90;5.38;;;21.50;99.90;;;;;;5032370;28;20030;-57
2022/12/19 02:26:36;;;;;;;7.22;4.75;;;21.50;99.90;;;;;;4952197;29;20457;-57
2022/12/19 02:29:19;;;;;;;10.10;5.50;;;21.50;99.90;;;;;;5031816;28;20028;-57
2022/12/19 02:32:06;;;;;;;6.80;4.60;;;21.50;99.90;;;;;;5032163;28;20094;-56
2022/12/19 02:35:00;;;;;;;8.60;4.90;;;21.50;99.90;;;;;;5032359;28;20085;-56
2022/12/19 02:37:55;;;;;;;7.70;4.10;;;21.40;99.90;;;;;;5032238;28;20064;-57
2022/12/19 02:40:38;;;;;;;6.38;4.18;;;21.40;99.90;;;;;;5003853;28;20033;-57
2022/12/19 02:43:04;;;;;;;9.35;5.10;;;21.40;99.90;;;;;;5032648;28;20025;-57
2022/12/19 02:45:34;;;;;;;7.43;4.68;;;21.40;99.90;;;;;;5032413;28;20491;-57
2022/12/19 02:48:02;;;;;;;6.45;4.43;;;21.40;99.90;;;;;;5014558;28;20025;-58
2022/12/19 02:50:42;;;;;;;8.23;4.57;;;21.40;99.90;;;;;;5014414;28;20124;-57
2022/12/19 02:53:12;;;;;;;7.43;4.53;;;21.30;99.90;;;;;;5014324;28;20026;-58
2022/12/19 02:56:01;;;;;;;8.20;4.10;;;21.30;99.90;;;;;;5030699;28;20466;-57
2022/12/19 02:58:43;;;;;;;6.13;4.40;;;21.30;99.90;;;;;;5032025;28;20026;-57
2022/12/19 03:01:28;;;;;;;6.13;4.03;;;21.30;99.90;;;;;;5031227;28;20411;-57
2022/12/19 03:04:16;;;;;;;6.80;4.07;;;21.30;99.90;;;;;;5031584;28;20038;-57
2022/12/19 03:06:56;;;;;;;5.32;4.03;;;21.30;99.90;;;;;;5032057;28;20029;-57
2022/12/19 03:09:39;;;;;;;7.63;4.32;;;21.30;99.90;;;;;;5031889;28;20498;-57
2022/12/19 03:12:09;;;;;;;5.68;3.58;;;21.30;99.90;;;;;;5032258;28;20053;-55
2022/12/19 03:14:36;;;;;;;6.60;4.43;;;21.30;99.90;;;;;;5031908;28;20033;-55
2022/12/19 03:17:06;;;;;;;5.47;3.80;;;21.30;99.90;;;;;;5032025;28;20026;-54
2022/12/19 03:19:34;;;;;;;6.03;3.83;;;21.20;99.90;;;;;;5031982;28;20030;-54
2022/12/19 03:22:00;;;;;;;5.72;3.38;;;21.20;99.90;;;;;;5031641;28;20053;-54
2022/12/19 03:24:27;;;;;;;15.27;4.43;;;21.20;99.90;;;;;;5031741;28;20030;-55
2022/12/19 03:27:17;;;;;;;6.80;4.32;;;21.20;99.90;;;;;;5031759;28;20036;-55
2022/12/19 03:30:08;;;;;;;5.80;3.78;;;21.20;99.90;;;;;;5031641;28;20108;-55
2022/12/19 03:32:37;;;;;;;5.85;3.83;;;21.20;99.90;;;;;;5031779;28;20549;-54
2022/12/19 03:35:20;;;;;;;6.57;3.97;;;21.20;99.90;;;;;;5031887;28;20032;-55
2022/12/19 03:37:49;;;;;;;6.05;3.45;;;21.20;99.90;;;;;;5031638;28;20448;-55
2022/12/19 03:40:20;;;;;;;5.13;3.92;;;21.20;99.90;;;;;;5031834;28;20040;-54
2022/12/19 03:45:53;;;;;;;4.63;3.35;;;21.10;99.90;;;;;;5020874;28;20052;-54
2022/12/19 03:48:31;;;;;;;6.85;4.38;;;21.10;99.90;;;;;;5035250;28;20160;-54
2022/12/19 03:50:57;;;;;;;6.43;3.40;;;21.10;99.90;;;;;;5035071;28;20064;-54
2022/12/19 03:53:38;;;;;;;8.23;3.65;;;21.10;99.90;;;;;;5035064;28;20049;-54
2022/12/19 03:56:18;;;;;;;7.57;4.45;;;21.10;99.90;;;;;;5035108;28;20068;-54
2022/12/19 03:58:51;;;;;;;5.03;3.30;;;21.10;99.90;;;;;;5035148;28;20128;-55
2022/12/19 04:01:18;;;;;;;7.55;3.72;;;21.10;99.90;;;;;;5035389;28;20499;-54
2022/12/19 04:03:44;;;;;;;6.82;3.95;;;21.00;99.90;;;;;;5035036;28;20063;-54
2022/12/19 04:06:10;;;;;;;5.78;3.17;;;21.00;99.90;;;;;;5034845;28;20068;-55
2022/12/19 04:08:37;;;;;;;4.90;3.10;;;21.00;99.90;;;;;;5035007;28;20532;-54
2022/12/19 04:11:17;;;;;;;6.65;3.10;;;21.00;99.90;;;;;;5034803;28;20032;-55
2022/12/19 04:13:54;;;;;;;6.88;3.67;;;21.00;99.90;;;;;;5034845;28;20045;-55
2022/12/19 04:16:32;;;;;;;6.65;3.70;;;21.00;99.90;;;;;;5016925;28;20033;-55
2022/12/19 04:19:46;;;;;;;6.25;3.78;;;21.00;99.90;;;;;;5034619;28;20026;-55
2022/12/19 04:22:24;;;;;;;5.63;3.10;;;21.00;99.90;;;;;;4954282;29;20035;-55
2022/12/19 04:24:52;;;;;;;5.95;2.95;;;21.00;99.90;;;;;;5024771;28;20480;-55
2022/12/19 04:27:20;;;;;;;6.50;3.08;;;21.00;99.90;;;;;;5034555;28;20061;-55
2022/12/19 04:29:47;;;;;;;5.78;3.40;;;21.00;99.90;;;;;;5034451;28;20115;-55
2022/12/19 04:32:13;;;;;;;6.53;3.20;;;20.90;99.90;;;;;;5034408;28;20030;-55
2022/12/19 04:34:39;;;;;;;6.68;3.00;;;20.90;99.90;;;;;;5034589;28;20030;-55
2022/12/19 04:37:05;;;;;;;7.57;3.42;;;20.90;99.90;;;;;;5034306;28;20040;-55
2022/12/19 04:39:32;;;;;;;5.00;3.17;;;20.90;99.90;;;;;;5016582;28;20025;-55
2022/12/19 04:41:57;;;;;;;6.47;3.85;;;20.90;99.90;;;;;;5034186;28;20371;-55
2022/12/19 04:44:23;;;;;;;5.75;3.53;;;20.90;99.90;;;;;;5034234;28;20028;-55
2022/12/19 04:46:49;;;;;;;7.07;3.28;;;20.90;99.90;;;;;;5034100;28;20491;-55
2022/12/19 04:49:15;;;;;;;6.30;3.40;;;20.90;99.90;;;;;;5034041;28;20025;-55
2022/12/19 04:51:40;;;;;;;6.40;3.42;;;20.90;99.90;;;;;;5034117;28;20379;-55
2022/12/19 04:54:06;;;;;;;6.10;3.25;;;20.90;99.90;;;;;;5033633;28;20022;-55
2022/12/19 04:56:32;;;;;;;5.38;2.70;;;20.90;99.90;;;;;;5034009;28;20029;-54
2022/12/19 04:58:58;;;;;;;5.68;3.00;;;20.90;99.90;;;;;;5033909;28;20045;-55
2022/12/19 05:01:25;;;;;;;4.80;3.00;;;20.90;99.90;;;;;;5034629;28;20088;-55
2022/12/19 05:03:51;;;;;;;6.03;3.22;;;20.90;99.90;;;;;;5033861;28;20072;-55
2022/12/19 05:06:18;;;;;;;5.63;3.60;;;20.90;99.90;;;;;;5033898;28;20018;-54
2022/12/19 05:08:44;;;;;;;6.38;3.40;;;20.90;99.90;;;;;;5033790;28;20036;-55
2022/12/19 05:11:12;;;;;;;5.78;3.00;;;20.80;99.90;;;;;;5016233;28;20486;-54
2022/12/19 05:13:38;;;;;;;4.05;2.90;;;20.90;99.90;;;;;;5033807;28;20025;-55
2022/12/19 05:16:07;;;;;;;5.22;2.90;;;20.80;99.90;;;;;;5033572;28;20041;-55
2022/12/19 05:18:33;;;;;;;4.88;3.00;;;20.80;99.90;;;;;;5033491;28;20018;-55
2022/12/19 05:20:59;;;;;;;4.82;2.67;;;20.80;99.90;;;;;;5033515;28;20065;-55
2022/12/19 05:23:25;;;;;;;4.57;2.65;;;20.80;99.90;;;;;;5033637;28;20115;-55
2022/12/19 05:25:51;;;;;;;6.80;3.45;;;20.80;99.90;;;;;;5033289;28;20499;-55
2022/12/19 05:28:18;;;;;;;4.95;2.95;;;20.80;99.90;;;;;;5033444;28;20496;-55
2022/12/19 05:30:44;;;;;;;8.02;2.78;;;20.80;99.90;;;;;;5015717;28;20392;-55
2022/12/19 05:33:10;;;;;;;7.85;3.47;;;20.80;99.90;;;;;;5033323;28;20022;-55
2022/12/19 05:35:36;;;;;;;4.85;2.60;;;20.80;99.90;;;;;;5033027;28;20040;-55
2022/12/19 05:38:03;;;;;;;4.18;2.58;;;20.80;99.90;;;;;;5033237;28;20494;-57
2022/12/19 05:40:29;;;;;;;4.57;2.33;;;20.80;99.90;;;;;;5033031;28;20026;-56
2022/12/19 05:42:55;;;;;;;4.45;2.80;;;20.70;99.90;;;;;;5033116;28;20025;-57
2022/12/19 05:45:21;;;;;;;4.38;2.40;;;20.80;99.90;;;;;;5032916;28;20478;-57
2022/12/19 05:47:47;;;;;;;5.80;2.78;;;20.70;99.90;;;;;;5032886;28;20025;-55
2022/12/19 05:50:14;;;;;;;7.65;3.17;;;20.70;99.90;;;;;;5032970;28;20446;-55
2022/12/19 05:52:40;;;;;;;5.97;3.28;;;20.70;99.90;;;;;;5033063;28;20447;-55
2022/12/19 05:55:07;;;;;;;7.43;4.07;;;20.70;99.90;;;;;;5032780;28;20069;-55
2022/12/19 05:57:33;;;;;;;9.97;4.47;;;20.70;99.90;;;;;;5032858;28;20026;-55
2022/12/19 05:59:59;;;;;;;11.32;4.15;;;20.70;99.90;;;;;;5032612;28;20649;-55
2022/12/19 06:02:25;;;;;;;5.28;3.50;;;20.70;99.90;;;;;;4998565;28;20029;-55
2022/12/19 06:04:51;;;;;;;8.93;3.90;;;20.70;99.90;;;;;;5031634;28;20056;-56
2022/12/19 06:07:17;;;;;;;6.55;3.25;;;20.70;99.90;;;;;;5032741;28;20080;-55
2022/12/19 06:09:43;;;;;;;4.70;3.33;;;20.70;99.90;;;;;;5032781;28;20029;-55
2022/12/19 06:12:09;;;;;;;5.68;3.28;;;20.70;99.90;;;;;;5032553;28;20030;-55
2022/12/19 06:14:34;;;;;;;6.80;3.33;;;20.70;99.90;;;;;;5032284;28;20058;-55
2022/12/19 06:17:00;;;;;;;5.97;3.17;;;20.70;99.90;;;;;;5032480;28;20022;-56
2022/12/19 06:19:26;;;;;;;4.90;2.83;;;20.70;99.90;;;;;;5014729;28;20025;-56
2022/12/19 06:21:52;;;;;;;6.13;3.72;;;20.70;99.90;;;;;;5032446;28;20021;-56
2022/12/19 06:24:18;;;;;;;7.18;3.03;;;20.60;99.90;;;;;;5032473;28;20101;-56
2022/12/19 06:26:44;;;;;;;4.95;3.10;;;20.70;99.90;;;;;;5032536;28;20048;-56
2022/12/19 06:29:10;;;;;;;8.32;3.20;;;20.60;99.90;;;;;;5032301;28;20475;-56
2022/12/19 06:31:35;;;;;;;5.20;3.20;;;20.60;99.90;;;;;;5032268;28;20029;-56
2022/12/19 06:34:01;;;;;;;4.68;3.10;;;20.60;99.90;;;;;;5014228;28;20029;-55
2022/12/19 06:36:30;;;;;;;7.03;3.50;;;20.60;99.90;;;;;;5032278;28;20033;-55
2022/12/19 06:38:57;;;;;;;4.70;3.05;;;20.60;99.90;;;;;;5032235;28;20029;-56
2022/12/19 06:44:12;;;;;;;6.07;3.28;;;20.60;99.90;;;;;;5032294;28;20410;-55
2022/12/19 06:46:39;;;;;;;6.10;2.95;;;20.60;99.90;;;;;;5014413;28;20025;-55
2022/12/19 06:49:05;;;;;;;6.13;3.17;;;20.60;99.90;;;;;;5032133;28;20029;-55
2022/12/19 06:51:31;;;;;;;7.72;3.95;;;20.50;99.90;;;;;;5032074;28;20108;-55
2022/12/19 06:53:57;;;;;;;7.47;3.10;;;20.50;99.90;;;;;;5032034;28;20472;-55
2022/12/19 06:56:23;;;;;;;6.03;3.78;;;20.50;99.90;;;;;;5032112;28;20041;-55
2022/12/19 06:58:49;;;;;;;6.85;3.50;;;20.50;99.90;;;;;;5031945;28;20451;-55
2022/12/19 07:01:39;;;;;;;8.35;3.40;;;20.50;99.90;;;;;;5032084;28;20052;-54
2022/12/19 07:04:06;;;;;;;7.70;3.90;;;20.50;99.90;;;;;;5031909;28;20605;-55
2022/12/19 07:06:32;;;;;;;6.78;3.90;;;20.50;99.90;;;;;;5031915;28;20058;-55
2022/12/19 07:08:58;;;;;;;7.07;3.53;;;20.50;99.90;;;;;;5031865;28;20065;-54
2022/12/19 07:11:23;;;;;;;6.57;3.67;;;20.50;99.90;;;;;;5031787;28;20052;-54
2022/12/19 07:13:49;;;;;;;6.78;3.60;;;20.50;99.90;;;;;;5031859;28;20030;-55
2022/12/19 07:16:15;;;;;;;7.28;3.42;;;20.40;99.90;;;;;;5033955;28;20137;-55
2022/12/19 07:18:41;;;;;;;9.00;4.35;;;20.50;99.90;;;;;;5035883;28;20022;-55
2022/12/19 07:21:12;;;;;;;8.82;3.67;;;20.40;99.90;;;;;;5035710;28;20032;-55
2022/12/19 07:23:39;;;;;;;6.68;3.88;;;20.40;99.90;;;;;;5017888;28;20036;-55
2022/12/19 07:26:05;;;;;;;8.35;3.97;;;20.40;99.90;;;;;;5035673;28;20032;-55
2022/12/19 07:28:33;;;;;;;8.20;4.20;;;20.40;99.90;;;;;;5035626;28;20030;-55
2022/12/19 07:30:58;;;;;;;;;;;20.40;99.90;;;;;;5035980;28;20025;-55
2022/12/19 07:33:24;;;;;;;9.45;4.47;;;20.40;99.90;;;;;;5035461;28;19912;-55
2022/12/19 07:35:51;;;;;;;5.80;3.60;;;20.40;99.90;;;;;;5035502;28;20489;-55
2022/12/19 07:38:17;;;;;;;6.88;4.03;;;20.40;99.90;;;;;;5035492;28;20037;-55
2022/12/19 07:40:42;;;;;;;7.25;4.18;;;20.40;99.90;;;;;;5035365;28;20055;-55
2022/12/19 07:43:09;;;;;;;8.30;3.70;;;20.40;99.90;;;;;;5035424;28;20032;-56
2022/12/19 07:45:37;;;;;;;7.07;4.13;;;20.40;99.90;;;;;;5035254;28;20040;-56
2022/12/19 07:48:04;;;;;;;7.13;3.55;;;20.40;99.90;;;;;;5035215;28;20032;-56
2022/12/19 07:50:30;;;;;;;9.77;3.58;;;20.40;99.90;;;;;;5017485;28;20022;-56
2022/12/19 07:52:57;;;;;;;6.32;3.78;;;20.40;99.90;;;;;;5035070;28;20029;-56
2022/12/19 07:55:24;;;;;;;7.20;3.60;;;20.40;99.90;;;;;;5035086;28;20061;-55
2022/12/19 07:57:49;;;;;;;7.20;4.20;;;20.40;99.90;;;;;;5035201;28;20104;-55
2022/12/19 08:00:15;;;;;;;6.20;3.50;;;20.40;99.90;;;;;;5034690;28;20136;-55
2022/12/19 08:02:41;;;;;;;6.85;3.47;;;20.40;99.90;;;;;;5034919;28;20468;-55
2022/12/19 08:05:07;;;;;;;5.43;3.50;;;20.40;99.90;;;;;;5034821;28;20032;-55
2022/12/19 08:07:33;;;;;;;5.05;3.47;;;20.50;99.90;;;;;;5034667;28;20060;-55
2022/12/19 08:09:59;;;;;;;5.93;3.22;;;20.50;99.90;;;;;;5034852;28;20065;-55
2022/12/19 08:12:25;;;;;;;5.15;3.38;;;20.50;99.90;;;;;;5034777;28;20026;-55
2022/12/19 08:14:51;;;;;;;5.15;3.38;;;20.50;99.90;;;;;;5034693;28;20037;-55
2022/12/19 08:17:17;;;;;;;6.85;3.17;;;20.60;99.90;;;;;;5034881;28;20022;-56
2022/12/19 08:19:43;;;;;;;5.70;3.72;;;20.60;99.90;;;;;;5034760;28;20045;-56
2022/12/19 08:22:09;;;;;;;5.88;3.45;;;20.60;99.90;;;;;;5034402;28;20053;-55
2022/12/19 08:24:35;;;;;;;5.45;2.75;;;20.60;99.90;;;;;;5034438;28;20034;-55
2022/12/19 08:27:01;;;;;;;6.97;3.30;;;20.70;99.90;;;;;;5033544;28;20030;-55
2022/12/19 08:29:27;;;;;;;6.00;3.25;;;20.70;99.90;;;;;;5034286;28;20139;-55
2022/12/19 08:31:52;;;;;;;8.88;4.22;;;20.70;99.90;;;;;;5034521;28;20030;-55
2022/12/19 08:34:18;;;;;;;7.75;3.22;;;20.80;99.90;;;;;;5034437;28;20034;-55
2022/12/19 08:36:44;;;;;;;6.80;3.78;;;20.80;99.90;;;;;;5034234;28;20043;-55
2022/12/19 08:39:10;;;;;;;5.32;3.20;;;20.80;99.90;;;;;;5034333;28;20091;-55
2022/12/19 08:41:36;;;;;;;4.68;3.40;;;20.80;99.90;;;;;;5033945;28;20472;-55
2022/12/19 08:44:02;;;;;;;8.43;3.65;;;20.90;99.90;;;;;;5034061;28;20028;-55
2022/12/19 08:46:28;;;;;;;5.40;3.60;;;20.90;99.90;;;;;;5034133;28;20025;-55
2022/12/19 08:48:54;;;;;;;6.95;3.72;;;20.90;99.90;;;;;;5034193;28;20024;-55
2022/12/19 08:51:20;;;;;;;5.88;3.88;;;21.00;99.90;;;;;;5034227;28;20026;-55
2022/12/19 08:53:46;;;;;;;5.97;3.90;;;21.00;99.90;;;;;;5034027;28;20075;-55
2022/12/19 08:56:20;;;;;;;8.10;3.60;;;21.00;99.90;;;;;;5033916;28;20033;-55
2022/12/19 08:58:46;;;;;;;8.30;4.25;;;21.10;99.90;;;;;;5033907;28;20479;-55
2022/12/19 09:01:17;;;;;;;7.88;3.78;;;21.10;99.90;;;;;;5033573;28;20049;-55
2022/12/19 09:03:44;;;;;;;5.10;3.42;;;21.10;99.90;;;;;;5033833;28;20049;-55
2022/12/19 09:06:12;;;;;;;6.38;3.40;;;21.20;99.90;;;;;;5033681;28;20540;-56
2022/12/19 09:08:38;;;;;;;4.78;3.72;;;21.20;99.90;;;;;;5033577;28;20018;-55
2022/12/19 09:11:13;;;;;;;8.57;3.73;;;21.20;99.90;;;;;;5033664;28;20026;-55
2022/12/19 09:13:41;;;;;;;6.38;4.05;;;21.30;99.90;;;;;;5033560;28;20105;-55
2022/12/19 09:16:19;;;;;;;8.55;4.13;;;21.30;99.90;;;;;;5033332;28;20487;-55
2022/12/19 09:18:46;;;;;;;6.78;3.65;;;21.30;99.90;;;;;;5033596;28;20037;-55
2022/12/19 09:21:15;;;;;;;;;;;21.40;99.90;;;;;;5033919;28;20532;-55
2022/12/19 09:23:42;;;;;;;6.25;3.38;;;21.40;99.90;;;;;;5033478;28;20359;-55
2022/12/19 09:26:11;;;;;;;6.28;3.83;;;21.40;99.90;;;;;;5015881;28;20021;-56
2022/12/19 09:28:38;;;;;;;8.23;4.03;;;21.40;99.90;;;;;;5033277;28;20022;-55
2022/12/19 09:31:26;;;;;;;5.63;3.63;;;21.50;99.90;;;;;;5033181;28;20032;-55
2022/12/19 09:33:52;;;;;;;5.78;3.83;;;21.50;99.90;;;;;;5032897;28;20037;-55
2022/12/19 09:36:21;;;;;;;7.43;4.32;;;21.60;99.90;;;;;;5015340;28;20033;-55
2022/12/19 09:38:48;;;;;;;7.75;3.65;;;21.60;99.90;;;;;;5015237;28;20076;-55
2022/12/19 09:41:37;;;;;;;6.50;3.45;;;21.60;99.90;;;;;;5033075;28;20029;-55
2022/12/19 09:44:32;;;;;;;5.05;3.47;;;21.60;99.90;;;;;;5033107;28;20029;-55
2022/12/19 09:47:01;;;;;;;7.22;4.00;;;21.70;99.90;;;;;;5032915;28;20052;-55
2022/12/19 09:49:41;;;;;;;5.93;4.05;;;21.70;99.90;;;;;;5015056;28;20022;-54
2022/12/19 09:52:13;;;;;;;7.25;3.70;;;21.70;99.90;;;;;;5032856;28;20040;-54
2022/12/19 09:54:48;;;;;;;5.93;3.45;;;21.70;99.90;;;;;;5032703;28;20041;-54
2022/12/19 09:57:39;;;;;;;8.20;3.58;;;21.80;99.90;;;;;;5032598;28;20029;-54
2022/12/19 10:00:11;;;;;;;7.85;3.92;;;21.80;99.90;;;;;;4995570;28;20491;-55
2022/12/19 10:02:56;;;;;;;7.03;4.05;;;21.90;99.90;;;;;;5032714;28;20026;-55
2022/12/19 10:05:25;;;;;;;8.38;4.38;;;21.90;99.90;;;;;;5032766;28;20029;-55
2022/12/19 10:07:52;;;;;;;7.60;3.63;;;21.90;99.90;;;;;;5031294;28;20035;-55
2022/12/19 10:10:44;;;;;;;6.68;3.50;;;22.00;99.90;;;;;;5032555;28;20079;-55
2022/12/19 10:13:31;;;;;;;7.20;3.75;;;22.00;99.90;;;;;;5032414;28;20094;-54
2022/12/19 10:16:06;;;;;;;6.55;3.83;;;22.00;99.90;;;;;;5032542;28;20376;-55
2022/12/19 10:18:36;;;;;;;5.50;3.45;;;22.00;99.90;;;;;;5032430;28;20435;-54
2022/12/19 10:21:10;;;;;;;7.00;3.55;;;22.10;99.90;;;;;;5032319;28;20070;-55
2022/12/19 10:24:00;;;;;;;7.72;4.20;;;22.10;99.90;;;;;;5032380;28;20018;-54
2022/12/19 10:26:29;;;;;;;6.72;3.08;;;22.10;99.90;;;;;;5032435;28;20026;-55
2022/12/19 10:29:13;;;;;;;7.38;3.80;;;22.10;99.90;;;;;;5032349;28;20032;-55
2022/12/19 10:31:52;;;;;;;5.65;4.05;;;22.10;99.90;;;;;;5032074;28;20056;-55
2022/12/19 10:34:19;;;;;;;8.35;3.47;;;22.20;99.90;;;;;;5032035;28;20021;-55
2022/12/19 10:36:58;;;;;;;8.33;4.20;;;22.20;99.90;;;;;;5032117;28;20113;-55
2022/12/19 10:39:30;;;;;;;10.40;4.20;;;22.20;99.90;;;;;;5032511;28;20017;-55
2022/12/19 10:42:06;;;;;;;6.30;3.47;;;22.20;99.90;;;;;;5032276;28;20030;-55
2022/12/19 10:44:35;;;;;;;6.53;3.75;;;22.30;99.90;;;;;;5031874;28;20048;-55
2022/12/19 10:47:01;;;;;;;7.45;3.75;;;22.30;99.90;;;;;;5031911;28;20032;-55
2022/12/19 10:49:27;;;;;;;7.43;3.88;;;22.30;99.90;;;;;;5032005;28;20026;-55
2022/12/19 10:52:06;;;;;;;10.23;3.95;;;22.40;99.90;;;;;;5031369;28;20111;-55
2022/12/19 10:54:42;;;;;;;7.30;3.85;;;22.30;99.90;;;;;;5031898;28;20030;-55
2022/12/19 10:57:28;;;;;;;9.88;3.65;;;22.30;99.90;;;;;;5031953;28;20096;-55
2022/12/19 11:00:02;;;;;;;7.82;3.90;;;22.30;99.90;;;;;;5013934;28;20052;-55
2022/12/19 11:02:40;;;;;;;7.85;4.15;;;22.30;99.90;;;;;;5031803;28;20044;-55
2022/12/19 11:05:28;;;;;;;8.23;3.80;;;22.40;99.90;;;;;;5031504;28;20021;-55
2022/12/19 11:08:06;;;;;;;9.80;3.30;;;22.40;99.90;;;;;;4992701;28;20112;-55
2022/12/19 11:10:40;;;;;;;;;;;22.40;99.90;;;;;;5030904;28;20430;-55
2022/12/19 11:13:37;;;;;;;7.45;3.58;;;22.40;99.90;;;;;;5031604;28;19905;-55
2022/12/19 11:16:05;;;;;;;6.88;3.50;;;22.50;99.90;;;;;;5031485;28;20041;-55
2022/12/19 11:18:35;;;;;;;8.90;4.00;;;22.40;99.90;;;;;;5031931;28;20079;-54
2022/12/19 11:21:27;;;;;;;5.40;3.45;;;22.40;99.90;;;;;;5031807;28;20029;-55
2022/12/19 11:23:59;;;;;;;11.82;3.70;;;22.40;99.90;;;;;;5021343;28;20038;-55
2022/12/19 11:26:46;;;;;;;13.05;3.53;;;22.40;99.90;;;;;;5031608;28;20017;-55
2022/12/19 11:29:23;;;;;;;11.35;3.75;;;22.40;99.90;;;;;;5031576;28;20026;-55
2022/12/19 11:32:00;;;;;;;6.68;3.30;;;22.50;99.90;;;;;;5031427;28;20025;-55
2022/12/19 11:34:34;;;;;;;7.90;3.45;;;22.50;99.90;;;;;;5031553;28;20029;-55
2022/12/19 11:37:18;;;;;;;8.57;3.42;;;22.50;99.90;;;;;;5031909;28;20021;-55
2022/12/19 11:40:19;;;;;;;7.50;4.07;;;22.50;99.90;;;;;;5030095;28;20033;-54
2022/12/19 11:42:53;;;;;;;12.18;4.07;;;22.50;99.90;;;;;;5013782;28;20038;-54
2022/12/19 11:45:38;;;;;;;7.05;3.67;;;22.50;99.90;;;;;;5031452;28;20071;-54
2022/12/19 11:48:21;;;;;;;6.70;3.28;;;22.50;99.90;;;;;;5031481;28;20487;-54
2022/12/19 11:51:26;;;;;;;10.32;3.35;;;22.50;99.90;;;;;;5031318;28;20030;-54
2022/12/19 11:54:24;;;;;;;10.32;3.75;;;22.50;99.90;;;;;;4991883;28;20048;-55
2022/12/19 11:56:50;;;;;;;8.95;3.15;;;22.60;99.90;;;;;;5023551;28;20034;-54
2022/12/19 11:59:19;;;;;;;8.85;3.17;;;22.60;99.90;;;;;;5030748;28;20357;-53
2022/12/19 12:01:45;;;;;;;11.15;3.63;;;22.60;99.90;;;;;;5030712;28;20357;-54
2022/12/19 12:04:49;;;;;;;5.88;2.80;;;22.70;99.90;;;;;;5033766;28;20021;-54
2022/12/19 12:07:14;;;;;;;6.90;3.60;;;22.70;99.90;;;;;;4983777;28;20036;-54
2022/12/19 12:10:09;;;;;;;6.97;3.40;;;22.70;99.90;;;;;;5034168;28;20021;-53
2022/12/19 12:12:50;;;;;;;8.68;3.30;;;22.80;99.90;;;;;;5032697;28;20037;-55
2022/12/19 12:15:49;;;;;;;11.55;3.05;;;22.80;99.90;;;;;;5034467;28;20125;-55
2022/12/19 12:18:43;;;;;;;7.38;3.20;;;22.90;99.90;;;;;;5034535;28;20087;-54
2022/12/19 12:21:18;;;;;;;4.68;2.78;;;22.90;99.90;;;;;;5034255;28;20037;-55
2022/12/19 12:24:12;;;;;;;7.28;2.58;;;22.90;99.90;;;;;;5034417;28;20084;-55
2022/12/19 12:27:00;;;;;;;5.40;3.20;;;23.00;99.90;;;;;;5034561;28;20031;-55
2022/12/19 12:29:33;;;;;;;6.32;2.60;;;23.00;99.90;;;;;;5034402;28;20037;-55
2022/12/19 12:31:58;;;;;;;7.63;3.20;;;23.10;99.90;;;;;;5034390;28;20017;-55
2022/12/19 12:34:43;;;;;;;4.50;2.70;;;23.10;99.90;;;;;;5033557;28;20379;-55
2022/12/19 12:37:31;;;;;;;5.47;3.00;;;23.20;99.90;;;;;;5031354;28;20029;-55
2022/12/19 12:40:20;;;;;;;4.63;2.42;;;23.20;99.90;;;;;;5032160;28;20022;-54
2022/12/19 12:43:13;;;;;;;8.73;2.60;;;23.20;99.90;;;;;;5033235;28;20349;-54
2022/12/19 12:45:41;;;;;;;4.63;2.78;;;23.20;99.90;;;;;;5031113;28;20074;-55
2022/12/19 12:48:37;;;;;;;4.07;2.65;;;23.20;99.90;;;;;;5034143;28;20049;-55
2022/12/19 12:51:05;;;;;;;5.97;2.75;;;23.20;99.90;;;;;;5034144;28;20033;-55
2022/12/19 12:53:35;;;;;;;6.43;2.53;;;23.30;99.90;;;;;;5033982;28;20033;-55
2022/12/19 12:56:03;;;;;;;6.20;3.03;;;23.30;99.90;;;;;;5016621;28;20491;-55
2022/12/19 12:58:47;;;;;;;4.10;2.83;;;23.30;99.90;;;;;;5033544;28;20056;-55
2022/12/19 13:01:28;;;;;;;4.07;2.47;;;23.30;99.90;;;;;;5032565;28;20061;-54
2022/12/19 13:04:10;;;;;;;6.38;2.38;;;23.30;99.90;;;;;;5033843;28;20026;-54
2022/12/19 13:07:00;;;;;;;4.97;2.63;;;23.30;99.90;;;;;;5032076;28;20021;-54
2022/12/19 13:09:33;;;;;;;7.50;3.30;;;23.40;99.90;;;;;;5030556;28;20057;-54
2022/12/19 13:14:48;;;;;;;7.90;2.97;;;23.40;99.90;;;;;;5029329;28;20048;-54
2022/12/19 13:17:24;;;;;;;4.70;2.90;;;23.50;99.90;;;;;;5031626;28;20033;-55
2022/12/19 13:20:13;;;;;;;5.40;3.00;;;23.50;99.90;;;;;;5032501;28;20062;-56